createdAt,value
2019-03-19T00:01:51.354Z,55.50
2019-03-19T00:04:21.539Z,55.50
2019-03-19T00:06:51.799Z,55.40
2019-03-19T00:09:21.976Z,55.30
2019-03-19T00:11:52.148Z,55.40
2019-03-19T00:14:22.359Z,55.40
2019-03-19T00:16:52.553Z,55.60
2019-03-19T00:19:22.739Z,55.60
2019-03-19T00:21:52.925Z,55.60
2019-03-19T00:24:23.108Z,55.60
2019-03-19T00:26:53.352Z,55.70
2019-03-19T00:29:23.559Z,55.80
2019-03-19T00:31:53.802Z,55.90
2019-03-19T00:34:23.969Z,55.80
2019-03-19T00:36:54.164Z,55.70
2019-03-19T00:39:24.368Z,55.50
2019-03-19T00:41:54.688Z,55.50
2019-03-19T00:44:24.967Z,55.70
2019-03-19T00:46:55.144Z,55.60
2019-03-19T00:49:25.372Z,55.50
2019-03-19T00:51:57.133Z,55.50
2019-03-19T00:54:27.344Z,55.50
2019-03-19T00:56:57.542Z,55.40
2019-03-19T00:59:27.720Z,55.40
2019-03-19T01:01:58.007Z,55.40
2019-03-19T01:04:28.208Z,55.20
2019-03-19T01:06:58.386Z,55.30
2019-03-19T01:09:28.616Z,55.40
2019-03-19T01:11:58.939Z,55.20
2019-03-19T01:14:29.156Z,55.30
2019-03-19T01:16:59.352Z,55.30
2019-03-19T01:19:29.777Z,55.10
2019-03-19T01:21:59.958Z,55.00
2019-03-19T01:24:31.688Z,55.00
2019-03-19T01:27:01.910Z,54.90
2019-03-19T01:29:32.092Z,54.90
2019-03-19T01:32:02.269Z,54.90
2019-03-19T01:34:32.772Z,54.90
2019-03-19T01:37:02.965Z,54.80
2019-03-19T01:39:33.154Z,54.80
2019-03-19T01:42:03.381Z,55.10
2019-03-19T01:44:35.196Z,55.00
2019-03-19T01:47:05.392Z,54.90
2019-03-19T01:49:35.627Z,55.00
2019-03-19T01:52:05.867Z,55.00
2019-03-19T01:54:36.080Z,55.20
2019-03-19T01:57:06.285Z,55.20
2019-03-19T01:59:36.474Z,55.30
2019-03-19T02:02:06.729Z,55.40
2019-03-19T02:04:37.047Z,55.40
2019-03-19T02:07:07.310Z,55.40
2019-03-19T02:09:37.556Z,55.50
2019-03-19T02:12:07.789Z,55.50
2019-03-19T02:14:37.992Z,55.70
2019-03-19T02:17:08.168Z,55.70
2019-03-19T02:19:38.458Z,55.70
2019-03-19T02:22:10.217Z,55.60
2019-03-19T02:24:40.452Z,55.50
2019-03-19T02:27:10.699Z,55.40
2019-03-19T02:29:40.896Z,55.30
2019-03-19T02:32:11.124Z,55.20
2019-03-19T02:34:41.375Z,55.10
2019-03-19T02:37:13.170Z,55.10
2019-03-19T02:39:43.364Z,55.00
2019-03-19T02:42:13.568Z,54.90
2019-03-19T02:44:43.800Z,54.70
2019-03-19T02:47:14.001Z,54.50
2019-03-19T02:49:44.384Z,54.30
2019-03-19T02:52:14.588Z,53.70
2019-03-19T02:54:44.896Z,53.60
2019-03-19T02:57:15.089Z,53.40
2019-03-19T02:59:45.316Z,53.10
2019-03-19T03:02:17.076Z,53.10
2019-03-19T03:04:47.323Z,52.80
2019-03-19T03:07:17.538Z,52.70
2019-03-19T03:09:47.715Z,52.50
2019-03-19T03:12:17.987Z,52.30
2019-03-19T03:14:48.337Z,52.20
2019-03-19T03:17:18.543Z,52.20
2019-03-19T03:19:48.851Z,52.60
2019-03-19T03:22:19.040Z,52.00
2019-03-19T03:24:49.312Z,52.00
2019-03-19T03:27:19.596Z,51.90
2019-03-19T03:29:51.553Z,51.80
2019-03-19T03:32:23.357Z,51.80
2019-03-19T03:34:53.606Z,51.80
2019-03-19T03:37:23.825Z,51.80
2019-03-19T03:39:54.017Z,51.70
2019-03-19T03:42:24.194Z,51.70
2019-03-19T03:44:54.493Z,51.70
2019-03-19T03:47:24.682Z,51.70
2019-03-19T03:49:54.992Z,51.70
2019-03-19T03:52:25.197Z,51.60
2019-03-19T03:54:57.028Z,51.50
2019-03-19T03:57:27.284Z,51.60
2019-03-19T03:59:57.552Z,51.50
2019-03-19T04:02:27.826Z,51.50
2019-03-19T04:05:00.807Z,51.40
2019-03-19T04:07:31.067Z,51.60
2019-03-19T04:10:01.238Z,51.50
2019-03-19T04:12:31.814Z,51.40
2019-03-19T04:15:02.075Z,51.50
2019-03-19T04:17:32.267Z,51.50
2019-03-19T04:20:02.549Z,51.50
2019-03-19T04:22:32.921Z,51.60
2019-03-19T04:25:03.299Z,51.70
2019-03-19T04:27:33.478Z,51.70
2019-03-19T04:30:05.357Z,51.80
2019-03-19T04:32:35.530Z,51.90
2019-03-19T04:35:06.708Z,51.90
2019-03-19T04:37:37.111Z,51.80
2019-03-19T04:40:12.261Z,51.80
2019-03-19T04:42:42.445Z,51.80
2019-03-19T04:45:14.796Z,51.60
2019-03-19T04:47:45.103Z,51.70
2019-03-19T04:50:16.111Z,51.80
2019-03-19T04:52:46.343Z,51.80
2019-03-19T04:55:17.071Z,51.80
2019-03-19T04:57:47.305Z,52.00
2019-03-19T05:00:18.328Z,52.00
2019-03-19T05:02:48.672Z,52.10
2019-03-19T05:05:19.733Z,52.10
2019-03-19T05:07:51.592Z,52.20
2019-03-19T05:10:22.922Z,52.10
2019-03-19T05:12:53.174Z,52.10
2019-03-19T05:15:23.401Z,52.90
2019-03-19T05:17:53.616Z,52.20
2019-03-19T05:20:23.785Z,52.30
2019-03-19T05:22:54.036Z,52.30
2019-03-19T05:25:24.330Z,52.20
2019-03-19T05:27:54.577Z,52.30
2019-03-19T05:30:24.770Z,52.20
2019-03-19T05:32:54.951Z,52.70
2019-03-19T05:35:25.167Z,52.10
2019-03-19T05:37:55.431Z,51.90
2019-03-19T05:40:25.696Z,51.80
2019-03-19T05:42:55.977Z,51.60
2019-03-19T05:45:26.273Z,51.80
2019-03-19T05:47:56.450Z,51.80
2019-03-19T05:50:26.804Z,51.80
2019-03-19T05:52:56.984Z,51.70
2019-03-19T05:55:27.200Z,51.50
2019-03-19T05:57:57.417Z,51.50
2019-03-19T06:00:30.742Z,51.20
2019-03-19T06:03:00.953Z,51.30
2019-03-19T06:05:31.127Z,51.30
2019-03-19T06:08:01.324Z,51.00
2019-03-19T06:10:31.540Z,51.30
2019-03-19T06:13:01.724Z,51.30
2019-03-19T06:15:31.963Z,51.40
2019-03-19T06:18:02.148Z,51.20
2019-03-19T06:20:32.360Z,50.60
2019-03-19T06:23:02.755Z,51.10
2019-03-19T06:25:32.992Z,50.60
2019-03-19T06:28:03.338Z,50.20
2019-03-19T06:30:33.558Z,50.00
2019-03-19T06:33:03.750Z,49.80
2019-03-19T06:35:34.019Z,49.70
2019-03-19T06:38:04.556Z,49.70
2019-03-19T06:40:34.863Z,49.70
2019-03-19T06:43:05.043Z,49.80
2019-03-19T06:45:35.246Z,49.60
2019-03-19T06:48:05.452Z,49.30
2019-03-19T06:50:44.643Z,49.30
2019-03-19T06:53:07.606Z,49.00
2019-03-19T06:55:37.883Z,48.80
2019-03-19T06:58:11.355Z,48.70
2019-03-19T07:00:40.223Z,48.90
2019-03-19T07:03:10.453Z,48.70
2019-03-19T07:05:40.672Z,48.40
2019-03-19T07:08:10.900Z,48.40
2019-03-19T07:10:41.077Z,47.90
2019-03-19T07:13:11.303Z,47.70
2019-03-19T07:15:41.586Z,47.30
2019-03-19T07:18:11.784Z,46.10
2019-03-19T07:20:42.118Z,45.50
2019-03-19T07:23:14.756Z,44.80
2019-03-19T07:25:44.946Z,43.80
2019-03-19T07:28:21.938Z,42.80
2019-03-19T07:30:47.093Z,42.00
2019-03-19T07:33:17.283Z,39.90
2019-03-19T07:35:50.581Z,39.00
2019-03-19T07:38:20.828Z,36.60
2019-03-19T07:40:51.027Z,34.70
2019-03-19T07:43:21.255Z,33.50
2019-03-19T07:45:53.057Z,32.10
2019-03-19T07:48:23.239Z,32.20
2019-03-19T07:50:53.464Z,31.60
2019-03-19T07:53:23.676Z,31.20
2019-03-19T07:55:53.885Z,30.70
2019-03-19T07:58:35.738Z,30.00
2019-03-19T08:00:56.044Z,30.20
2019-03-19T08:03:26.258Z,30.60
2019-03-19T08:05:56.448Z,30.70
2019-03-19T08:08:26.682Z,30.70
2019-03-19T08:10:56.969Z,31.50
2019-03-19T08:13:27.149Z,31.10
2019-03-19T08:15:57.382Z,31.00
2019-03-19T08:18:27.612Z,30.60
2019-03-19T08:20:57.781Z,30.00
2019-03-19T08:23:27.993Z,29.70
2019-03-19T08:25:58.256Z,29.60
2019-03-19T08:28:28.424Z,29.30
2019-03-19T08:30:58.664Z,29.70
2019-03-19T08:33:29.043Z,29.40
2019-03-19T08:36:08.953Z,29.70
2019-03-19T08:38:31.307Z,29.60
2019-03-19T08:41:01.659Z,29.50
2019-03-19T08:43:31.851Z,29.30
2019-03-19T08:46:03.636Z,28.90
2019-03-19T08:48:33.829Z,29.60
2019-03-19T08:51:04.055Z,30.20
2019-03-19T08:53:34.383Z,31.20
2019-03-19T08:56:04.647Z,31.90
2019-03-19T08:58:35.022Z,32.50
2019-03-19T09:01:05.263Z,32.80
2019-03-19T09:03:35.443Z,33.30
2019-03-19T09:06:05.676Z,33.50
2019-03-19T09:08:35.851Z,33.20
2019-03-19T09:11:06.167Z,33.60
2019-03-19T09:13:36.483Z,34.00
2019-03-19T09:16:07.562Z,34.50
2019-03-19T09:18:37.761Z,34.90
2019-03-19T09:21:08.052Z,35.10
2019-03-19T09:23:40.629Z,35.50
2019-03-19T09:26:10.904Z,35.50
2019-03-19T09:28:41.093Z,35.60
2019-03-19T09:31:11.296Z,35.10
2019-03-19T09:33:43.111Z,34.80
2019-03-19T09:36:13.282Z,34.40
2019-03-19T09:38:43.498Z,33.80
2019-03-19T09:41:13.713Z,33.40
2019-03-19T09:43:43.899Z,33.60
2019-03-19T09:46:14.116Z,33.60
2019-03-19T09:48:44.351Z,33.70
2019-03-19T09:51:14.556Z,33.70
2019-03-19T09:53:44.762Z,34.10
2019-03-19T09:56:14.972Z,34.30
2019-03-19T09:58:45.166Z,34.60
2019-03-19T10:01:15.385Z,34.80
2019-03-19T10:03:45.584Z,34.70
2019-03-19T10:06:15.800Z,34.80
2019-03-19T10:08:47.592Z,35.00
2019-03-19T10:11:17.988Z,34.80
2019-03-19T10:13:48.169Z,35.20
2019-03-19T10:16:18.386Z,35.90
2019-03-19T10:18:48.633Z,35.40
2019-03-19T10:21:18.923Z,35.50
2019-03-19T10:23:49.116Z,35.90
2019-03-19T10:26:19.340Z,36.20
2019-03-19T10:28:49.582Z,36.70
2019-03-19T10:31:19.987Z,36.90
2019-03-19T10:33:50.168Z,37.00
2019-03-19T10:36:20.364Z,36.60
2019-03-19T10:38:50.591Z,36.50
2019-03-19T10:41:20.891Z,36.50
2019-03-19T10:43:51.085Z,34.90
2019-03-19T10:46:21.452Z,34.60
2019-03-19T10:48:53.210Z,33.90
2019-03-19T10:51:25.003Z,34.80
2019-03-19T10:53:55.218Z,35.30
2019-03-19T10:56:25.466Z,35.00
2019-03-19T10:58:55.693Z,34.50
2019-03-19T11:01:25.883Z,34.10
2019-03-19T11:03:56.112Z,34.10
2019-03-19T11:06:26.300Z,34.50
2019-03-19T11:08:56.513Z,34.50
2019-03-19T11:11:26.868Z,34.60
2019-03-19T11:13:57.175Z,34.90
2019-03-19T11:16:27.415Z,34.90
2019-03-19T11:18:57.634Z,34.90
2019-03-19T11:21:27.844Z,35.40
2019-03-19T11:23:59.636Z,36.00
2019-03-19T11:26:29.861Z,36.00
2019-03-19T11:29:00.060Z,35.90
2019-03-19T11:31:30.380Z,35.70
2019-03-19T11:34:00.566Z,35.50
2019-03-19T11:36:30.863Z,34.90
2019-03-19T11:39:01.039Z,34.40
2019-03-19T11:41:31.243Z,32.70
2019-03-19T11:44:01.451Z,32.20
2019-03-19T11:46:31.669Z,32.80
2019-03-19T11:49:01.884Z,33.10
2019-03-19T11:51:32.098Z,34.00
2019-03-19T11:54:02.302Z,33.60
2019-03-19T11:56:32.589Z,34.20
2019-03-19T11:59:02.848Z,30.10
2019-03-19T12:01:33.161Z,30.40
2019-03-19T12:04:03.477Z,31.80
2019-03-19T12:06:34.027Z,32.40
2019-03-19T12:09:05.624Z,32.80
2019-03-19T12:11:36.798Z,32.80
2019-03-19T12:14:08.569Z,32.40
2019-03-19T12:16:38.848Z,32.20
2019-03-19T12:19:09.064Z,32.20
2019-03-19T12:21:39.268Z,32.50
2019-03-19T12:24:09.487Z,32.60
2019-03-19T12:26:39.710Z,32.80
2019-03-19T12:29:09.892Z,33.20
2019-03-19T12:31:40.108Z,32.80
2019-03-19T12:34:10.322Z,32.00
2019-03-19T12:36:40.517Z,30.20
2019-03-19T12:39:10.747Z,30.60
2019-03-19T12:41:41.072Z,29.80
2019-03-19T12:44:11.316Z,30.70
2019-03-19T12:46:41.613Z,31.10
2019-03-19T12:49:11.848Z,29.70
2019-03-19T12:51:42.128Z,28.30
2019-03-19T12:54:13.262Z,27.80
2019-03-19T12:56:43.136Z,27.90
2019-03-19T12:59:20.086Z,28.80
2019-03-19T13:01:46.835Z,30.00
2019-03-19T13:04:17.114Z,31.10
2019-03-19T13:06:47.283Z,31.90
2019-03-19T13:09:17.504Z,31.80
2019-03-19T13:11:47.690Z,31.10
2019-03-19T13:14:17.932Z,31.10
2019-03-19T13:16:48.112Z,30.90
2019-03-19T13:19:18.293Z,30.90
2019-03-19T13:21:48.516Z,30.90
2019-03-19T13:24:18.711Z,30.10
2019-03-19T13:26:48.912Z,29.70
2019-03-19T13:29:19.146Z,29.90
2019-03-19T13:31:49.330Z,30.10
2019-03-19T13:34:19.594Z,30.20
2019-03-19T13:36:50.092Z,30.80
2019-03-19T13:39:20.381Z,31.20
2019-03-19T13:41:50.575Z,31.50
2019-03-19T13:44:20.763Z,31.80
2019-03-19T13:46:51.083Z,32.40
2019-03-19T13:49:21.278Z,30.20
2019-03-19T13:51:53.079Z,30.00
2019-03-19T13:54:23.256Z,30.10
2019-03-19T13:56:55.041Z,30.30
2019-03-19T13:59:25.281Z,30.10
2019-03-19T14:01:55.481Z,30.80
2019-03-19T14:04:25.697Z,30.60
2019-03-19T14:06:55.895Z,30.60
2019-03-19T14:09:26.108Z,30.60
2019-03-19T14:11:56.299Z,30.70
2019-03-19T14:14:26.899Z,30.20
2019-03-19T14:16:57.080Z,30.00
2019-03-19T14:19:27.324Z,29.90
2019-03-19T14:21:57.510Z,30.00
2019-03-19T14:24:27.840Z,30.10
2019-03-19T14:26:58.111Z,29.90
2019-03-19T14:29:29.960Z,30.60
2019-03-19T14:32:03.953Z,30.00
2019-03-19T14:34:33.619Z,29.90
2019-03-19T14:37:03.876Z,30.40
2019-03-19T14:39:34.096Z,30.50
2019-03-19T14:42:04.308Z,30.70
2019-03-19T14:44:34.549Z,30.90
2019-03-19T14:47:04.880Z,30.90
2019-03-19T14:49:46.041Z,31.00
2019-03-19T14:52:06.961Z,30.20
2019-03-19T14:54:37.172Z,29.90
2019-03-19T14:57:07.380Z,29.90
2019-03-19T14:59:37.579Z,30.00
2019-03-19T15:02:07.767Z,30.10
2019-03-19T15:04:37.989Z,29.90
2019-03-19T15:07:08.184Z,29.60
2019-03-19T15:09:40.798Z,29.70
2019-03-19T15:12:11.021Z,29.60
2019-03-19T15:14:41.204Z,29.70
2019-03-19T15:17:11.416Z,29.80
2019-03-19T15:19:43.275Z,29.90
2019-03-19T15:22:13.512Z,30.00
2019-03-19T15:24:46.802Z,30.00
2019-03-19T15:27:17.077Z,30.00
2019-03-19T15:29:47.294Z,30.00
2019-03-19T15:32:17.495Z,30.10
2019-03-19T15:34:49.276Z,30.10
2019-03-19T15:37:19.507Z,30.30
2019-03-19T15:39:49.762Z,30.30
2019-03-19T15:42:19.984Z,30.70
2019-03-19T15:44:50.172Z,31.00
2019-03-19T15:47:20.533Z,31.30
2019-03-19T15:49:50.896Z,31.40
2019-03-19T15:52:21.103Z,31.30
2019-03-19T15:54:51.324Z,31.70
2019-03-19T15:57:21.565Z,32.20
2019-03-19T15:59:51.807Z,32.50
2019-03-19T16:02:22.015Z,33.00
2019-03-19T16:04:52.230Z,33.50
2019-03-19T16:07:22.444Z,33.60
2019-03-19T16:09:54.256Z,33.90
2019-03-19T16:12:24.452Z,33.90
2019-03-19T16:14:54.682Z,34.00
2019-03-19T16:17:24.873Z,33.70
2019-03-19T16:19:55.092Z,33.80
2019-03-19T16:22:25.287Z,33.70
2019-03-19T16:24:57.074Z,33.90
2019-03-19T16:27:27.280Z,34.00
2019-03-19T16:29:57.586Z,34.10
2019-03-19T16:32:28.145Z,34.30
2019-03-19T16:34:58.392Z,34.40
2019-03-19T16:37:28.592Z,34.70
2019-03-19T16:39:58.831Z,34.90
2019-03-19T16:42:29.163Z,35.10
2019-03-19T16:44:59.358Z,35.30
2019-03-19T16:47:29.573Z,35.50
2019-03-19T16:49:59.795Z,35.70
2019-03-19T16:52:30.013Z,36.10
2019-03-19T16:55:01.089Z,36.20
2019-03-19T16:57:32.834Z,36.50
2019-03-19T17:00:03.272Z,36.60
2019-03-19T17:02:33.482Z,36.80
2019-03-19T17:05:04.810Z,37.60
2019-03-19T17:07:35.073Z,37.10
2019-03-19T17:10:14.253Z,37.30
2019-03-19T17:12:44.437Z,37.40
2019-03-19T17:15:18.415Z,37.40
2019-03-19T17:17:48.717Z,37.50
2019-03-19T17:20:19.432Z,37.50
2019-03-19T17:22:49.719Z,37.70
2019-03-19T17:25:21.216Z,37.80
2019-03-19T17:27:51.392Z,37.80
2019-03-19T17:30:27.909Z,37.70
2019-03-19T17:32:59.654Z,37.80
2019-03-19T17:35:29.871Z,37.80
2019-03-19T17:38:00.048Z,37.70
2019-03-19T17:40:40.612Z,37.70
2019-03-19T17:43:03.099Z,38.40
2019-03-19T17:45:34.849Z,37.70
2019-03-19T17:48:15.448Z,37.60
2019-03-19T17:50:39.427Z,37.70
2019-03-19T17:53:09.650Z,37.60
2019-03-19T17:55:39.837Z,37.50
2019-03-19T17:58:11.748Z,37.50
2019-03-19T18:00:52.395Z,37.60
2019-03-19T18:03:22.604Z,37.60
2019-03-19T18:05:52.795Z,37.50
2019-03-19T18:08:23.012Z,37.40
2019-03-19T18:10:54.948Z,37.40
2019-03-19T18:13:26.831Z,37.50
2019-03-19T18:15:57.170Z,37.60
2019-03-19T18:18:27.464Z,37.60
2019-03-19T18:20:57.772Z,37.50
2019-03-19T18:23:29.504Z,37.40
2019-03-19T18:26:01.496Z,37.50
2019-03-19T18:28:31.730Z,37.50
2019-03-19T18:31:01.970Z,37.50
2019-03-19T18:33:32.280Z,37.60
2019-03-19T18:36:02.565Z,37.80
2019-03-19T18:38:32.787Z,38.00
2019-03-19T18:41:04.539Z,38.20
2019-03-19T18:43:34.764Z,38.40
2019-03-19T18:46:05.023Z,38.50
2019-03-19T18:48:35.312Z,38.70
2019-03-19T18:51:05.543Z,38.90
2019-03-19T18:53:35.786Z,39.00
2019-03-19T18:56:06.025Z,39.20
2019-03-19T18:58:36.210Z,39.40
2019-03-19T19:01:06.207Z,39.50
2019-03-19T19:03:36.497Z,39.50
2019-03-19T19:06:06.712Z,39.70
2019-03-19T19:08:38.596Z,40.20
2019-03-19T19:11:08.811Z,40.60
2019-03-19T19:13:39.050Z,41.10
2019-03-19T19:16:09.278Z,41.30
2019-03-19T19:18:39.564Z,41.60
2019-03-19T19:21:09.867Z,41.90
2019-03-19T19:23:40.110Z,41.90
2019-03-19T19:26:10.442Z,42.00
2019-03-19T19:28:41.496Z,41.90
2019-03-19T19:31:11.783Z,41.80
2019-03-19T19:33:42.086Z,41.80
2019-03-19T19:36:12.356Z,41.80
2019-03-19T19:38:42.634Z,41.40
2019-03-19T19:41:13.630Z,41.30
2019-03-19T19:43:43.859Z,41.30
2019-03-19T19:46:14.036Z,41.40
2019-03-19T19:48:44.233Z,41.30
2019-03-19T19:51:14.488Z,41.40
2019-03-19T19:53:44.976Z,41.50
2019-03-19T19:56:15.339Z,41.50
2019-03-19T19:58:45.660Z,41.60
2019-03-19T20:01:15.957Z,42.60
2019-03-19T20:03:46.229Z,42.50
2019-03-19T20:06:18.921Z,43.10
2019-03-19T20:08:49.207Z,43.80
2019-03-19T20:11:19.453Z,44.30
2019-03-19T20:13:49.791Z,44.70
2019-03-19T20:16:20.067Z,44.90
2019-03-19T20:18:50.276Z,45.00
2019-03-19T20:21:22.188Z,44.80
2019-03-19T20:23:52.570Z,44.50
2019-03-19T20:26:24.399Z,43.80
2019-03-19T20:28:54.695Z,43.40
2019-03-19T20:31:24.949Z,43.00
2019-03-19T20:33:55.239Z,42.70
2019-03-19T20:36:25.577Z,42.60
2019-03-19T20:38:58.376Z,42.40
2019-03-19T20:41:28.572Z,43.00
2019-03-19T20:43:59.103Z,42.20
2019-03-19T20:46:30.885Z,42.00
2019-03-19T20:49:01.081Z,41.80
2019-03-19T20:51:31.302Z,41.50
2019-03-19T20:54:01.587Z,41.30
2019-03-19T20:56:31.876Z,40.90
2019-03-19T20:59:02.107Z,40.70
2019-03-19T21:01:32.289Z,40.50
2019-03-19T21:04:02.517Z,40.40
2019-03-19T21:06:32.873Z,40.60
2019-03-19T21:09:03.311Z,40.50
2019-03-19T21:11:33.510Z,40.50
2019-03-19T21:14:03.728Z,40.50
2019-03-19T21:16:33.971Z,40.60
2019-03-19T21:19:04.513Z,40.60
2019-03-19T21:21:34.701Z,40.80
2019-03-19T21:24:04.920Z,41.00
2019-03-19T21:26:35.102Z,41.00
2019-03-19T21:29:05.328Z,41.10
2019-03-19T21:31:35.549Z,41.90
2019-03-19T21:34:05.752Z,41.30
2019-03-19T21:36:36.039Z,41.40
2019-03-19T21:39:07.570Z,41.50
2019-03-19T21:41:38.244Z,41.70
2019-03-19T21:44:08.476Z,42.10
2019-03-19T21:46:40.315Z,42.40
2019-03-19T21:49:10.549Z,42.50
2019-03-19T21:51:40.844Z,42.70
2019-03-19T21:54:11.047Z,43.00
2019-03-19T21:56:41.261Z,43.20
2019-03-19T21:59:11.487Z,43.20
2019-03-19T22:01:41.841Z,43.40
2019-03-19T22:04:12.103Z,43.40
2019-03-19T22:06:44.150Z,43.30
2019-03-19T22:09:14.388Z,43.20
2019-03-19T22:11:44.842Z,43.20
2019-03-19T22:14:15.147Z,43.40
2019-03-19T22:16:45.359Z,43.60
2019-03-19T22:19:15.569Z,43.80
2019-03-19T22:21:45.797Z,43.90
2019-03-19T22:24:16.080Z,43.90
2019-03-19T22:26:46.330Z,44.00
2019-03-19T22:29:16.512Z,44.00
2019-03-19T22:31:46.752Z,43.90
2019-03-19T22:34:17.011Z,43.80
2019-03-19T22:36:48.807Z,43.80
2019-03-19T22:39:19.045Z,43.80
2019-03-19T22:41:49.297Z,43.90
2019-03-19T22:44:19.517Z,43.90
2019-03-19T22:46:49.698Z,44.00
2019-03-19T22:49:19.961Z,44.10
2019-03-19T22:51:50.509Z,44.30
2019-03-19T22:54:20.744Z,45.00
2019-03-19T22:56:50.956Z,44.50
2019-03-19T22:59:22.864Z,44.50
2019-03-19T23:01:53.139Z,44.50
2019-03-19T23:04:27.423Z,44.50
2019-03-19T23:06:55.387Z,44.50
2019-03-19T23:09:27.177Z,44.50
2019-03-19T23:11:57.385Z,44.50
2019-03-19T23:14:27.616Z,44.50
2019-03-19T23:16:57.839Z,44.40
2019-03-19T23:19:28.028Z,44.40
2019-03-19T23:21:58.237Z,44.50
2019-03-19T23:24:28.448Z,44.50
2019-03-19T23:26:58.616Z,44.70
2019-03-19T23:29:28.824Z,44.80
2019-03-19T23:31:59.022Z,44.80
2019-03-19T23:34:38.424Z,44.80
2019-03-19T23:37:06.321Z,44.90
2019-03-19T23:39:36.544Z,45.00
2019-03-19T23:42:06.894Z,45.00
2019-03-19T23:44:37.144Z,45.10
2019-03-19T23:47:07.321Z,45.30
2019-03-19T23:49:39.115Z,45.40
2019-03-19T23:52:10.910Z,45.40
2019-03-19T23:54:41.081Z,45.50
2019-03-19T23:57:11.287Z,45.60
2019-03-19T23:59:41.600Z,45.70
